Pacific Dawn — 2AGH7 — position and weather

sailwx.info

Track history (hours):
 
Tides and Currents Weather Stations Pressure Air Temp Water Temp Dewpoint Dewpoint Depression Visibility Wind Speed Wind Dir Waves Ship Positions

Pacific Dawn

Last reported at 2016-Aug-29 11:32 UTC. Time now 2016-Aug-30 10:58 UTC.
Position S 22°24' E 166°47'.

Length 245 m; draft 8.3 m.

Type: Passenger vessel. MMSI: 235059368.

Date/timePositionNaut miles runAvg speedWind from/ knotsBaromVisibWave heightAir tempDewpointWater temp
2016-Aug-29 11:32S 22°24' E 166°47'1717.9
2016-Aug-29 10:33S 22°20' E 166°29'4 4.3
2016-Aug-29 09:32S 22°16' E 166°26'0 0.0
2016-Aug-29 08:32S 22°16' E 166°26'0 0.0
2016-Aug-29 07:32S 22°16' E 166°26'0 0.0
2016-Aug-29 06:32S 22°16' E 166°26'0 0.0
2016-Aug-29 05:32S 22°16' E 166°26'0 0.0
2016-Aug-29 04:32S 22°16' E 166°26'0 0.3
2016-Aug-29 03:34S 22°16' E 166°26'1313.4
2016-Aug-29 02:34S 22°23' E 166°14'24119.2
2016-Aug-28 14:00S 23°42' E 162°06'19717.9 190 / 241015.210.8 2.520.016.422.0
2016-Aug-28 03:00S 24°48' E 158°42'31017.8 210 / 261018.410.8 2.525.017.019.0
2016-Aug-27 09:33S 26°40' E 153°21'1414.0
2016-Aug-27 08:33S 26°49' E 153°10'1515.3
2016-Aug-27 07:33S 27°03' E 153°17'1313.5
2016-Aug-27 06:33S 27°16' E 153°16'15 7.3
2016-Aug-27 04:33S 27°26' E 153°04'0 0.0
2016-Aug-27 03:28S 27°26' E 153°04'0 0.0
2016-Aug-27 02:28S 27°26' E 153°04'0 0.0
2016-Aug-27 01:31S 27°26' E 153°04'0 0.0
2016-Aug-27 00:31S 27°26' E 153°04'0 0.0
2016-Aug-26 23:31S 27°26' E 153°04'0 0.0
2016-Aug-26 22:28S 27°26' E 153°04'0 0.0
2016-Aug-26 21:31S 27°26' E 153°04'0 0.0
2016-Aug-26 20:31S 27°26' E 153°04'0 0.0
2016-Aug-26 19:33S 27°26' E 153°04'5 5.2
2016-Aug-26 18:33S 27°24' E 153°09'1211.9
2016-Aug-26 17:33S 27°15' E 153°18'1514.8
2016-Aug-26 16:33S 27°01' E 153°15'1614.8
2016-Aug-26 15:28S 26°45' E 153°11'1111.6
2016-Aug-26 14:33S 26°40' E 153°21'59717.8
2016-Aug-25 05:00S 20°18' E 161°42'26817.9 020 / 101011.810.8 0.528.022.125.0
2016-Aug-24 14:00S 17°12' E 165°06'   100 / 151013.210.8 0.525.020.423.0
2016-Aug-20 15:00S 21°18' E 168°42'159 6.4 150 / 261016.010.8 2.022.015.323.0
2016-Aug-19 14:00S 23°12' E 166°42'   110 / 261016.810.8 3.020.014.923.0
Track history (hours):
 
Tides and Currents Weather Stations Pressure Air Temp Water Temp Dewpoint Dewpoint Depression Visibility Wind Speed Wind Dir Waves Ship Positions

Pacific Dawn

Last reported at 2016-Aug-29 11:32 UTC. Time now 2016-Aug-30 10:58 UTC.
Position S 22°24' E 166°47'.

Length 245 m; draft 8.3 m.

Type: Passenger vessel. MMSI: 235059368.

Date/timePositionNaut miles runAvg speedWind from/ knotsBaromVisibWave heightAir tempDewpointWater temp
2016-Aug-29 11:32S 22°24' E 166°47'1717.9
2016-Aug-29 10:33S 22°20' E 166°29'4 4.3
2016-Aug-29 09:32S 22°16' E 166°26'0 0.0
2016-Aug-29 08:32S 22°16' E 166°26'0 0.0
2016-Aug-29 07:32S 22°16' E 166°26'0 0.0
2016-Aug-29 06:32S 22°16' E 166°26'0 0.0
2016-Aug-29 05:32S 22°16' E 166°26'0 0.0
2016-Aug-29 04:32S 22°16' E 166°26'0 0.3
2016-Aug-29 03:34S 22°16' E 166°26'1313.4
2016-Aug-29 02:34S 22°23' E 166°14'24119.2
2016-Aug-28 14:00S 23°42' E 162°06'19717.9 190 / 241015.210.8 2.520.016.422.0
2016-Aug-28 03:00S 24°48' E 158°42'31017.8 210 / 261018.410.8 2.525.017.019.0
2016-Aug-27 09:33S 26°40' E 153°21'1414.0
2016-Aug-27 08:33S 26°49' E 153°10'1515.3
2016-Aug-27 07:33S 27°03' E 153°17'1313.5
2016-Aug-27 06:33S 27°16' E 153°16'15 7.3
2016-Aug-27 04:33S 27°26' E 153°04'0 0.0
2016-Aug-27 03:28S 27°26' E 153°04'0 0.0
2016-Aug-27 02:28S 27°26' E 153°04'0 0.0
2016-Aug-27 01:31S 27°26' E 153°04'0 0.0
2016-Aug-27 00:31S 27°26' E 153°04'0 0.0
2016-Aug-26 23:31S 27°26' E 153°04'0 0.0
2016-Aug-26 22:28S 27°26' E 153°04'0 0.0
2016-Aug-26 21:31S 27°26' E 153°04'0 0.0
2016-Aug-26 20:31S 27°26' E 153°04'0 0.0
2016-Aug-26 19:33S 27°26' E 153°04'5 5.2
2016-Aug-26 18:33S 27°24' E 153°09'1211.9
2016-Aug-26 17:33S 27°15' E 153°18'1514.8
2016-Aug-26 16:33S 27°01' E 153°15'1614.8
2016-Aug-26 15:28S 26°45' E 153°11'1111.6
2016-Aug-26 14:33S 26°40' E 153°21'59717.8
2016-Aug-25 05:00S 20°18' E 161°42'26817.9 020 / 101011.810.8 0.528.022.125.0
2016-Aug-24 14:00S 17°12' E 165°06'   100 / 151013.210.8 0.525.020.423.0
2016-Aug-20 15:00S 21°18' E 168°42'159 6.4 150 / 261016.010.8 2.022.015.323.0
2016-Aug-19 14:00S 23°12' E 166°42'   110 / 261016.810.8 3.020.014.923.0

Dump ship's entire track history